createdAt,value
2019-05-29T00:01:21.683Z,96142.11
2019-05-29T00:03:49.806Z,96145.34
2019-05-29T00:06:18.657Z,96143.65
2019-05-29T00:08:47.102Z,96152.94
2019-05-29T00:11:15.596Z,96152.63
2019-05-29T00:13:44.092Z,96150.53
2019-05-29T00:16:12.619Z,96153.31
2019-05-29T00:18:41.103Z,96154.13
2019-05-29T00:21:11.523Z,96160.88
2019-05-29T00:23:39.885Z,96155.00
2019-05-29T00:26:08.391Z,96164.30
2019-05-29T00:28:36.911Z,96160.70
2019-05-29T00:31:05.839Z,96163.92
2019-05-29T00:33:34.425Z,96170.13
2019-05-29T00:36:02.915Z,96161.75
2019-05-29T00:38:31.417Z,96159.83
2019-05-29T00:40:59.909Z,96161.70
2019-05-29T00:43:28.446Z,96162.00
2019-05-29T00:45:56.943Z,96170.09
2019-05-29T00:48:25.428Z,96169.61
2019-05-29T00:50:53.931Z,96163.69
2019-05-29T00:53:22.440Z,96166.69
2019-05-29T00:55:50.952Z,96159.42
2019-05-29T00:58:19.924Z,96160.55
2019-05-29T01:00:48.573Z,96163.34
2019-05-29T01:03:17.904Z,96167.55
2019-05-29T01:05:46.437Z,96170.12
2019-05-29T01:08:14.936Z,96166.08
2019-05-29T01:10:43.497Z,96171.98
2019-05-29T01:13:13.141Z,96171.51
2019-05-29T01:15:41.746Z,96168.06
2019-05-29T01:18:11.457Z,96171.36
2019-05-29T01:20:40.227Z,96172.19
2019-05-29T01:23:08.706Z,96176.75
2019-05-29T01:25:37.216Z,96176.75
2019-05-29T01:28:05.771Z,96176.75
2019-05-29T01:30:34.283Z,96181.55
2019-05-29T01:33:02.811Z,96179.08
2019-05-29T01:35:31.323Z,96183.60
2019-05-29T01:37:59.811Z,96183.82
2019-05-29T01:40:29.728Z,96185.17
2019-05-29T01:42:58.318Z,96181.65
2019-05-29T01:45:27.680Z,96186.22
2019-05-29T01:47:56.208Z,96182.09
2019-05-29T01:50:24.718Z,96184.05
2019-05-29T01:52:53.208Z,96188.39
2019-05-29T01:55:21.765Z,96191.61
2019-05-29T01:57:50.304Z,96192.14
2019-05-29T02:00:20.141Z,96191.31
2019-05-29T02:02:48.721Z,96187.44
2019-05-29T02:05:17.849Z,96180.25
2019-05-29T02:07:46.382Z,96182.81
2019-05-29T02:10:16.003Z,96186.55
2019-05-29T02:12:44.514Z,96190.22
2019-05-29T02:15:24.821Z,96181.86
2019-05-29T02:17:44.018Z,96188.95
2019-05-29T02:20:12.752Z,96190.30
2019-05-29T02:22:41.257Z,96195.77
2019-05-29T02:25:09.995Z,96198.24
2019-05-29T02:27:38.478Z,96202.51
2019-05-29T02:30:08.364Z,96208.95
2019-05-29T02:32:37.077Z,96211.64
2019-05-29T02:35:06.705Z,96215.29
2019-05-29T02:37:35.247Z,96222.50
2019-05-29T02:40:05.071Z,96219.65
2019-05-29T02:42:33.659Z,96217.87
2019-05-29T02:45:02.498Z,96215.78
2019-05-29T02:47:30.998Z,96219.59
2019-05-29T02:49:59.528Z,96225.21
2019-05-29T02:52:28.697Z,96226.25
2019-05-29T02:54:58.336Z,96221.31
2019-05-29T02:57:27.115Z,96230.96
2019-05-29T02:59:55.596Z,96226.87
2019-05-29T03:02:25.532Z,96229.26
2019-05-29T03:04:54.160Z,96225.58
2019-05-29T03:07:24.317Z,96232.26
2019-05-29T03:09:52.858Z,96231.35
2019-05-29T03:12:22.782Z,96232.39
2019-05-29T03:14:51.332Z,96234.78
2019-05-29T03:17:19.835Z,96243.47
2019-05-29T03:19:48.424Z,96245.34
2019-05-29T03:22:16.926Z,96241.83
2019-05-29T03:24:45.422Z,96244.30
2019-05-29T03:27:13.914Z,96242.52
2019-05-29T03:29:42.399Z,96250.95
2019-05-29T03:32:14.136Z,96247.95
2019-05-29T03:34:46.388Z,96250.82
2019-05-29T03:37:11.371Z,96255.38
2019-05-29T03:39:39.872Z,96255.60
2019-05-29T03:42:08.379Z,96260.47
2019-05-29T03:44:36.944Z,96265.03
2019-05-29T03:47:06.241Z,96273.41
2019-05-29T03:49:35.210Z,96273.41
2019-05-29T03:52:04.192Z,96276.41
2019-05-29T03:54:34.932Z,96284.20
2019-05-29T03:57:02.941Z,96287.72
2019-05-29T03:59:32.700Z,96290.11
2019-05-29T04:02:01.301Z,96291.45
2019-05-29T04:04:31.379Z,96294.67
2019-05-29T04:07:00.017Z,96296.54
2019-05-29T04:09:29.205Z,96309.66
2019-05-29T04:11:58.069Z,96310.17
2019-05-29T04:14:27.554Z,96313.08
2019-05-29T04:17:00.288Z,96319.52
2019-05-29T04:19:30.540Z,96323.25
2019-05-29T04:22:03.270Z,96323.91
2019-05-29T04:24:34.010Z,96321.69
2019-05-29T04:27:04.118Z,96331.73
2019-05-29T04:29:34.195Z,96333.30
2019-05-29T04:32:02.776Z,96330.74
2019-05-29T04:34:32.251Z,96333.13
2019-05-29T04:37:01.501Z,96339.86
2019-05-29T04:39:30.624Z,96343.85
2019-05-29T04:41:59.176Z,96339.44
2019-05-29T04:44:28.831Z,96351.56
2019-05-29T04:47:10.340Z,96349.30
2019-05-29T04:49:29.272Z,96349.89
2019-05-29T04:51:57.811Z,96346.77
2019-05-29T04:54:26.291Z,96352.80
2019-05-29T04:56:54.746Z,96354.61
2019-05-29T04:59:23.253Z,96361.09
2019-05-29T05:01:51.725Z,96368.13
2019-05-29T05:04:20.248Z,96364.09
2019-05-29T05:06:48.761Z,96374.35
2019-05-29T05:09:17.322Z,96383.72
2019-05-29T05:11:45.782Z,96381.30
2019-05-29T05:14:14.368Z,96386.69
2019-05-29T05:16:42.934Z,96386.81
2019-05-29T05:19:11.401Z,96385.62
2019-05-29T05:21:40.320Z,96388.04
2019-05-29T05:24:08.933Z,96386.45
2019-05-29T05:26:38.419Z,96386.75
2019-05-29T05:29:07.050Z,96391.25
2019-05-29T05:31:36.484Z,96387.95
2019-05-29T05:34:05.199Z,96401.20
2019-05-29T05:36:34.675Z,96401.02
2019-05-29T05:39:03.640Z,96409.36
2019-05-29T05:41:32.721Z,96411.17
2019-05-29T05:44:01.284Z,96407.25
2019-05-29T05:46:30.930Z,96417.92
2019-05-29T05:48:59.483Z,96410.36
2019-05-29T05:51:27.936Z,96416.05
2019-05-29T05:53:56.440Z,96418.75
2019-05-29T05:56:24.946Z,96422.05
2019-05-29T05:58:53.439Z,96424.11
2019-05-29T06:01:21.911Z,96427.60
2019-05-29T06:03:50.564Z,96430.91
2019-05-29T06:06:19.294Z,96435.68
2019-05-29T06:08:47.776Z,96434.39
2019-05-29T06:11:16.287Z,96434.59
2019-05-29T06:13:44.749Z,96439.98
2019-05-29T06:16:13.307Z,96437.02
2019-05-29T06:18:43.022Z,96441.78
2019-05-29T06:21:11.779Z,96446.72
2019-05-29T06:23:41.136Z,96448.67
2019-05-29T06:26:09.631Z,96454.47
2019-05-29T06:28:39.146Z,96450.22
2019-05-29T06:31:07.607Z,96453.06
2019-05-29T06:33:37.286Z,96449.80
2019-05-29T06:36:05.930Z,96454.41
2019-05-29T06:38:35.590Z,96458.03
2019-05-29T06:41:04.203Z,96458.45
2019-05-29T06:43:33.786Z,96463.94
2019-05-29T06:46:02.327Z,96464.57
2019-05-29T06:48:42.472Z,96465.85
2019-05-29T06:51:01.312Z,96463.53
2019-05-29T06:53:29.885Z,96468.80
2019-05-29T06:55:59.414Z,96469.70
2019-05-29T06:58:28.689Z,96479.95
2019-05-29T07:00:57.202Z,96483.42
2019-05-29T07:03:25.676Z,96483.94
2019-05-29T07:05:54.227Z,96479.17
2019-05-29T07:08:37.697Z,96487.86
2019-05-29T07:10:52.947Z,96490.67
2019-05-29T07:13:21.438Z,96494.91
2019-05-29T07:15:49.987Z,96507.45
2019-05-29T07:18:18.449Z,96504.23
2019-05-29T07:20:47.091Z,96509.88
2019-05-29T07:23:15.517Z,96506.67
2019-05-29T07:25:45.487Z,96514.02
2019-05-29T07:28:14.201Z,96512.16
2019-05-29T07:30:48.307Z,96515.37
2019-05-29T07:33:12.983Z,96510.66
2019-05-29T07:35:41.479Z,96517.44
2019-05-29T07:38:09.957Z,96519.44
2019-05-29T07:40:39.087Z,96518.48
2019-05-29T07:43:08.654Z,96524.86
2019-05-29T07:45:37.822Z,96520.81
2019-05-29T07:48:06.467Z,96527.13
2019-05-29T07:50:35.043Z,96526.97
2019-05-29T07:53:03.594Z,96524.46
2019-05-29T07:55:32.147Z,96531.66
2019-05-29T07:58:00.634Z,96532.55
2019-05-29T08:00:35.871Z,96539.36
2019-05-29T08:02:59.402Z,96531.42
2019-05-29T08:05:27.958Z,96539.20
2019-05-29T08:07:56.497Z,96536.50
2019-05-29T08:10:25.128Z,96539.57
2019-05-29T08:12:55.778Z,96544.11
2019-05-29T08:15:23.976Z,96545.23
2019-05-29T08:17:52.487Z,96548.39
2019-05-29T08:20:21.059Z,96552.78
2019-05-29T08:22:50.537Z,96552.34
2019-05-29T08:25:19.587Z,96549.03
2019-05-29T08:27:48.918Z,96560.44
2019-05-29T08:30:19.244Z,96554.77
2019-05-29T08:32:49.104Z,96551.85
2019-05-29T08:35:17.814Z,96553.08
2019-05-29T08:37:47.020Z,96555.98
2019-05-29T08:40:15.899Z,96558.38
2019-05-29T08:42:45.228Z,96562.42
2019-05-29T08:45:14.023Z,96564.08
2019-05-29T08:47:43.501Z,96562.05
2019-05-29T08:50:18.605Z,96567.08
2019-05-29T08:52:43.833Z,96571.39
2019-05-29T08:55:13.868Z,96568.02
2019-05-29T08:57:42.667Z,96570.39
2019-05-29T09:00:13.043Z,96570.92
2019-05-29T09:02:42.550Z,96574.09
2019-05-29T09:05:11.579Z,96567.64
2019-05-29T09:07:40.082Z,96573.02
2019-05-29T09:10:09.183Z,96572.50
2019-05-29T09:12:37.784Z,96569.75
2019-05-29T09:15:09.200Z,96573.34
2019-05-29T09:17:38.029Z,96572.59
2019-05-29T09:20:07.542Z,96579.42
2019-05-29T09:22:36.213Z,96574.89
2019-05-29T09:25:07.428Z,96582.92
2019-05-29T09:27:35.935Z,96578.59
2019-05-29T09:30:05.961Z,96576.16
2019-05-29T09:32:49.513Z,96577.97
2019-05-29T09:35:05.588Z,96572.42
2019-05-29T09:37:34.065Z,96577.71
2019-05-29T09:40:02.688Z,96581.42
2019-05-29T09:42:31.182Z,96586.81
2019-05-29T09:44:59.658Z,96585.44
2019-05-29T09:47:28.160Z,96589.54
2019-05-29T09:49:56.629Z,96588.98
2019-05-29T09:52:25.118Z,96589.59
2019-05-29T09:54:54.676Z,96592.27
2019-05-29T09:57:24.049Z,96602.08
2019-05-29T09:59:53.990Z,96604.73
2019-05-29T10:02:22.862Z,96609.93
2019-05-29T10:04:51.383Z,96608.14
2019-05-29T10:07:21.490Z,96618.30
2019-05-29T10:09:50.052Z,96624.52
2019-05-29T10:12:18.724Z,96623.09
2019-05-29T10:14:50.628Z,96620.75
2019-05-29T10:17:17.599Z,96623.39
2019-05-29T10:19:46.088Z,96625.05
2019-05-29T10:22:14.579Z,96629.76
2019-05-29T10:24:43.086Z,96624.96
2019-05-29T10:27:11.682Z,96628.80
2019-05-29T10:29:40.235Z,96628.41
2019-05-29T10:32:08.748Z,96619.60
2019-05-29T10:34:37.262Z,96622.77
2019-05-29T10:37:05.817Z,96631.01
2019-05-29T10:39:34.340Z,96622.14
2019-05-29T10:42:02.854Z,96623.57
2019-05-29T10:44:31.494Z,96625.50
2019-05-29T10:46:59.993Z,96627.62
2019-05-29T10:49:28.625Z,96628.50
2019-05-29T10:52:11.999Z,96632.72
2019-05-29T10:54:27.338Z,96628.66
2019-05-29T10:56:55.858Z,96631.94
2019-05-29T10:59:24.334Z,96627.13
2019-05-29T11:01:53.774Z,96628.34
2019-05-29T11:04:22.439Z,96629.98
2019-05-29T11:06:52.459Z,96626.20
2019-05-29T11:09:21.359Z,96632.70
2019-05-29T11:11:50.671Z,96629.36
2019-05-29T11:14:19.323Z,96622.65
2019-05-29T11:16:49.050Z,96628.55
2019-05-29T11:19:17.602Z,96626.53
2019-05-29T11:21:47.971Z,96630.30
2019-05-29T11:24:16.304Z,96627.09
2019-05-29T11:26:44.784Z,96643.14
2019-05-29T11:29:13.275Z,96632.52
2019-05-29T11:31:41.799Z,96645.54
2019-05-29T11:34:10.282Z,96642.60
2019-05-29T11:36:38.957Z,96643.15
2019-05-29T11:39:09.248Z,96646.20
2019-05-29T11:41:38.145Z,96646.19
2019-05-29T11:44:06.707Z,96641.52
2019-05-29T11:46:35.419Z,96639.92
2019-05-29T11:49:03.985Z,96641.17
2019-05-29T11:51:32.472Z,96638.09
2019-05-29T11:54:02.455Z,96635.36
2019-05-29T11:56:31.151Z,96645.95
2019-05-29T11:58:59.736Z,96643.80
2019-05-29T12:01:28.300Z,96655.41
2019-05-29T12:04:18.160Z,96650.91
2019-05-29T12:06:27.034Z,96648.81
2019-05-29T12:08:55.813Z,96647.62
2019-05-29T12:11:24.416Z,96650.03
2019-05-29T12:13:54.170Z,96655.52
2019-05-29T12:16:22.888Z,96656.51
2019-05-29T12:18:51.569Z,96655.31
2019-05-29T12:21:20.116Z,96651.84
2019-05-29T12:23:48.594Z,96658.80
2019-05-29T12:26:22.652Z,96658.45
2019-05-29T12:28:47.335Z,96652.88
2019-05-29T12:31:15.848Z,96655.16
2019-05-29T12:33:44.516Z,96641.98
2019-05-29T12:36:13.007Z,96654.91
2019-05-29T12:38:41.484Z,96655.01
2019-05-29T12:41:10.005Z,96655.73
2019-05-29T12:43:38.764Z,96656.16
2019-05-29T12:46:07.419Z,96659.97
2019-05-29T12:48:35.906Z,96658.98
2019-05-29T12:51:04.531Z,96657.02
2019-05-29T12:53:33.063Z,96662.94
2019-05-29T12:56:02.565Z,96662.64
2019-05-29T12:58:31.077Z,96667.77
2019-05-29T13:01:00.694Z,96661.85
2019-05-29T13:03:29.342Z,96663.67
2019-05-29T13:05:58.198Z,96669.81
2019-05-29T13:08:27.011Z,96671.17
2019-05-29T13:10:56.203Z,96666.41
2019-05-29T13:13:24.744Z,96670.94
2019-05-29T13:15:54.595Z,96675.39
2019-05-29T13:18:23.206Z,96679.17
2019-05-29T13:20:51.723Z,96680.13
2019-05-29T13:23:20.177Z,96672.30
2019-05-29T13:25:48.671Z,96670.80
2019-05-29T13:28:17.197Z,96670.13
2019-05-29T13:30:45.686Z,96676.25
2019-05-29T13:33:14.206Z,96679.38
2019-05-29T13:35:42.682Z,96681.94
2019-05-29T13:38:11.154Z,96676.19
2019-05-29T13:40:39.749Z,96676.89
2019-05-29T13:43:14.984Z,96673.42
2019-05-29T13:45:38.530Z,96670.64
2019-05-29T13:48:07.476Z,96675.47
2019-05-29T13:50:36.123Z,96673.42
2019-05-29T13:53:05.472Z,96669.73
2019-05-29T13:55:34.108Z,96668.97
2019-05-29T13:58:03.806Z,96670.03
2019-05-29T14:00:34.705Z,96663.39
2019-05-29T14:03:04.600Z,96667.63
2019-05-29T14:05:33.455Z,96670.47
2019-05-29T14:08:02.770Z,96670.80
2019-05-29T14:10:31.454Z,96666.55
2019-05-29T14:13:00.936Z,96666.88
2019-05-29T14:15:29.625Z,96673.92
2019-05-29T14:17:58.220Z,96674.84
2019-05-29T14:20:26.671Z,96678.20
2019-05-29T14:22:55.176Z,96677.57
2019-05-29T14:25:23.872Z,96675.63
2019-05-29T14:27:52.364Z,96686.58
2019-05-29T14:30:21.216Z,96685.45
2019-05-29T14:32:49.721Z,96687.14
2019-05-29T14:35:18.421Z,96684.48
2019-05-29T14:37:46.968Z,96687.15
2019-05-29T14:40:17.207Z,96694.07
2019-05-29T14:42:45.783Z,96699.56
2019-05-29T14:45:14.633Z,96700.76
2019-05-29T14:47:43.123Z,96701.75
2019-05-29T14:50:13.577Z,96711.70
2019-05-29T14:52:42.043Z,96705.81
2019-05-29T14:55:16.113Z,96710.58
2019-05-29T14:57:41.399Z,96711.42
2019-05-29T15:00:24.343Z,96723.19
2019-05-29T15:02:44.824Z,96721.61
2019-05-29T15:05:14.965Z,96723.72
2019-05-29T15:07:43.792Z,96733.50
2019-05-29T15:10:24.969Z,96736.38
2019-05-29T15:12:42.968Z,96737.92
2019-05-29T15:15:14.265Z,96739.70
2019-05-29T15:17:42.125Z,96742.56
2019-05-29T15:20:12.593Z,96749.86
2019-05-29T15:22:41.761Z,96753.63
2019-05-29T15:25:18.434Z,96760.70
2019-05-29T15:27:40.922Z,96762.25
2019-05-29T15:30:11.855Z,96764.20
2019-05-29T15:32:40.903Z,96762.81
2019-05-29T15:35:13.816Z,96770.11
2019-05-29T15:37:40.119Z,96772.74
2019-05-29T15:40:11.024Z,96768.16
2019-05-29T15:42:39.526Z,96774.81
2019-05-29T15:45:09.881Z,96773.48
2019-05-29T15:47:38.485Z,96775.82
2019-05-29T15:50:09.157Z,96770.55
2019-05-29T15:52:37.886Z,96769.47
2019-05-29T15:55:22.457Z,96773.79
2019-05-29T15:57:38.978Z,96771.66
2019-05-29T16:00:15.654Z,96778.91
2019-05-29T16:02:48.327Z,96779.73
2019-05-29T16:05:15.498Z,96780.26
2019-05-29T16:07:44.336Z,96784.32
2019-05-29T16:10:18.600Z,96777.07
2019-05-29T16:12:45.823Z,96783.39
2019-05-29T16:15:15.480Z,96787.23
2019-05-29T16:17:44.038Z,96782.86
2019-05-29T16:20:12.649Z,96787.98
2019-05-29T16:22:41.280Z,96785.80
2019-05-29T16:25:10.926Z,96786.40
2019-05-29T16:27:39.413Z,96794.22
2019-05-29T16:30:13.452Z,96794.97
2019-05-29T16:32:42.200Z,96804.33
2019-05-29T16:35:11.136Z,96809.59
2019-05-29T16:37:39.564Z,96802.63
2019-05-29T16:40:16.068Z,96809.19
2019-05-29T16:42:44.825Z,96813.72
2019-05-29T16:45:14.356Z,96816.66
2019-05-29T16:47:42.861Z,96819.59
2019-05-29T16:50:13.110Z,96823.79
2019-05-29T16:52:41.600Z,96828.10
2019-05-29T16:55:10.791Z,96828.63
2019-05-29T16:57:39.446Z,96835.92
2019-05-29T17:00:13.567Z,96835.84
2019-05-29T17:02:42.441Z,96841.70
2019-05-29T17:05:11.309Z,96845.63
2019-05-29T17:07:39.786Z,96844.58
2019-05-29T17:10:09.221Z,96847.50
2019-05-29T17:12:37.740Z,96846.33
2019-05-29T17:15:09.572Z,96845.28
2019-05-29T17:17:38.118Z,96847.53
2019-05-29T17:20:10.323Z,96847.84
2019-05-29T17:22:38.912Z,96850.54
2019-05-29T17:25:08.064Z,96855.34
2019-05-29T17:27:36.649Z,96853.25
2019-05-29T17:30:07.669Z,96855.80
2019-05-29T17:32:36.258Z,96853.45
2019-05-29T17:35:06.959Z,96864.79
2019-05-29T17:37:35.535Z,96867.13
2019-05-29T17:40:06.619Z,96866.45
2019-05-29T17:42:35.132Z,96874.72
2019-05-29T17:45:05.078Z,96869.84
2019-05-29T17:47:33.556Z,96869.22
2019-05-29T17:50:02.149Z,96869.88
2019-05-29T17:52:30.661Z,96869.20
2019-05-29T17:54:59.140Z,96868.06
2019-05-29T17:57:27.621Z,96873.94
2019-05-29T17:59:56.117Z,96876.64
2019-05-29T18:02:24.726Z,96877.98
2019-05-29T18:04:53.239Z,96877.90
2019-05-29T18:07:22.649Z,96877.07
2019-05-29T18:09:51.241Z,96886.53
2019-05-29T18:12:20.860Z,96887.36
2019-05-29T18:14:49.449Z,96891.20
2019-05-29T18:17:17.952Z,96895.56
2019-05-29T18:19:47.019Z,96897.49
2019-05-29T18:22:15.515Z,96903.67
2019-05-29T18:24:44.002Z,96900.66
2019-05-29T18:27:12.595Z,96902.02
2019-05-29T18:29:41.096Z,96906.89
2019-05-29T18:32:09.596Z,96905.91
2019-05-29T18:34:38.114Z,96912.39
2019-05-29T18:37:06.685Z,96905.75
2019-05-29T18:39:35.303Z,96904.61
2019-05-29T18:42:03.790Z,96910.70
2019-05-29T18:44:33.071Z,96916.02
2019-05-29T18:47:01.538Z,96920.81
2019-05-29T18:49:30.019Z,96917.03
2019-05-29T18:52:00.429Z,96917.61
2019-05-29T18:54:29.898Z,96918.81
2019-05-29T18:57:14.648Z,96923.76
2019-05-29T18:59:29.591Z,96924.16
2019-05-29T19:01:58.154Z,96927.69
2019-05-29T19:04:27.621Z,96932.17
2019-05-29T19:06:56.179Z,96930.67
2019-05-29T19:09:25.660Z,96935.03
2019-05-29T19:11:54.119Z,96937.73
2019-05-29T19:14:23.930Z,96938.47
2019-05-29T19:16:52.454Z,96939.82
2019-05-29T19:19:22.056Z,96944.77
2019-05-29T19:21:50.607Z,96943.98
2019-05-29T19:24:19.161Z,96948.19
2019-05-29T19:26:47.657Z,96949.14
2019-05-29T19:29:16.223Z,96952.36
2019-05-29T19:31:44.852Z,96962.13
2019-05-29T19:34:13.429Z,96964.00
2019-05-29T19:36:41.921Z,96961.82
2019-05-29T19:39:10.494Z,96970.97
2019-05-29T19:41:38.988Z,96966.09
2019-05-29T19:44:07.613Z,96974.65
2019-05-29T19:46:52.559Z,96977.66
2019-05-29T19:49:06.476Z,96980.05
2019-05-29T19:51:35.447Z,96987.95
2019-05-29T19:54:04.025Z,96986.61
2019-05-29T19:56:32.530Z,96987.27
2019-05-29T19:59:01.016Z,96992.06
2019-05-29T20:01:34.136Z,97005.36
2019-05-29T20:03:59.733Z,97006.19
2019-05-29T20:06:28.861Z,97002.75
2019-05-29T20:08:57.522Z,97010.09
2019-05-29T20:11:27.567Z,97016.74
2019-05-29T20:13:56.174Z,97025.47
2019-05-29T20:16:24.692Z,97021.41
2019-05-29T20:18:53.558Z,97026.09
2019-05-29T20:21:22.069Z,97026.14
2019-05-29T20:23:50.564Z,97031.38
2019-05-29T20:26:19.061Z,97032.94
2019-05-29T20:28:47.562Z,97035.84
2019-05-29T20:31:16.089Z,97036.47
2019-05-29T20:33:44.590Z,97035.11
2019-05-29T20:36:13.071Z,97035.53
2019-05-29T20:38:41.572Z,97038.44
2019-05-29T20:41:10.094Z,97043.46
2019-05-29T20:43:39.760Z,97047.83
2019-05-29T20:46:08.344Z,97046.75
2019-05-29T20:48:36.859Z,97049.77
2019-05-29T20:51:05.506Z,97053.09
2019-05-29T20:53:35.273Z,97050.70
2019-05-29T20:56:03.865Z,97061.09
2019-05-29T20:58:33.684Z,97066.77
2019-05-29T21:01:03.284Z,97072.94
2019-05-29T21:03:32.333Z,97071.89
2019-05-29T21:06:00.794Z,97074.36
2019-05-29T21:08:29.354Z,97073.00
2019-05-29T21:10:57.869Z,97081.14
2019-05-29T21:13:26.464Z,97088.55
2019-05-29T21:15:54.975Z,97088.03
2019-05-29T21:18:23.498Z,97087.92
2019-05-29T21:20:52.004Z,97089.82
2019-05-29T21:23:20.497Z,97091.17
2019-05-29T21:25:48.998Z,97083.59
2019-05-29T21:28:17.506Z,97086.19
2019-05-29T21:30:46.084Z,97089.53
2019-05-29T21:33:14.592Z,97080.39
2019-05-29T21:35:44.267Z,97080.19
2019-05-29T21:38:12.766Z,97083.84
2019-05-29T21:40:42.443Z,97086.33
2019-05-29T21:43:11.048Z,97091.03
2019-05-29T21:45:40.954Z,97092.25
2019-05-29T21:48:09.559Z,97094.02
2019-05-29T21:50:39.103Z,97095.58
2019-05-29T21:53:07.764Z,97093.80
2019-05-29T21:55:37.490Z,97091.75
2019-05-29T21:58:06.191Z,97089.77
2019-05-29T22:00:44.419Z,97087.72
2019-05-29T22:03:13.051Z,97094.89
2019-05-29T22:05:42.712Z,97096.12
2019-05-29T22:08:11.353Z,97096.74
2019-05-29T22:10:40.000Z,97103.05
2019-05-29T22:13:08.527Z,97108.04
2019-05-29T22:15:37.104Z,97105.69
2019-05-29T22:18:06.047Z,97110.65
2019-05-29T22:20:34.630Z,97111.59
2019-05-29T22:23:03.166Z,97114.29
2019-05-29T22:25:34.416Z,97109.20
2019-05-29T22:28:01.989Z,97113.45
2019-05-29T22:30:30.639Z,97113.25
2019-05-29T22:32:59.578Z,97111.18
2019-05-29T22:35:28.194Z,97112.84
2019-05-29T22:37:57.725Z,97115.55
2019-05-29T22:40:26.398Z,97111.91
2019-05-29T22:42:55.577Z,97116.59
2019-05-29T22:45:24.228Z,97109.91
2019-05-29T22:47:53.699Z,97119.70
2019-05-29T22:50:22.394Z,97121.16
2019-05-29T22:52:51.783Z,97117.83
2019-05-29T22:55:20.325Z,97117.48
2019-05-29T22:57:48.843Z,97125.67
2019-05-29T23:00:18.528Z,97125.39
2019-05-29T23:02:47.031Z,97127.77
2019-05-29T23:05:15.866Z,97129.44
2019-05-29T23:07:44.332Z,97131.51
2019-05-29T23:10:13.193Z,97130.88
2019-05-29T23:12:41.671Z,97131.20
2019-05-29T23:15:10.405Z,97123.73
2019-05-29T23:17:38.910Z,97127.66
2019-05-29T23:20:07.944Z,97129.95
2019-05-29T23:22:36.546Z,97127.75
2019-05-29T23:25:06.221Z,97124.66
2019-05-29T23:27:35.547Z,97126.09
2019-05-29T23:30:06.569Z,97119.98
2019-05-29T23:32:35.149Z,97120.94
2019-05-29T23:35:04.215Z,97122.36
2019-05-29T23:37:32.718Z,97122.05
2019-05-29T23:40:01.357Z,97125.70
2019-05-29T23:42:29.869Z,97123.41
2019-05-29T23:44:59.429Z,97120.31
2019-05-29T23:47:27.940Z,97118.21
2019-05-29T23:49:57.551Z,97120.48
2019-05-29T23:52:26.079Z,97121.31
2019-05-29T23:54:55.696Z,97117.39
2019-05-29T23:57:24.242Z,97120.08
